Time;durP1;ratioP1;P1;durP2;ratioP2;P2;SDS_P1;SDS_P2;PMS_P1;PMS_P2;Temp;Humidity;BMP_temperature;BMP_pressure;BME280_temperature;BME280_humidity;BME280_pressure;Samples;Min_cycle;Max_cycle;Signal;HPM_P1;HPM_P2
2021/10/28 00:13:00;;;;;;;105.28;49.60;;;6.40;93.90;;;;;;5046317;28;20020;-67
2021/10/28 00:15:37;;;;;;;101.75;48.28;;;6.30;93.50;;;;;;5036748;28;20028;-67
2021/10/28 00:20:31;;;;;;;80.85;41.42;;;6.20;93.50;;;;;;5044759;28;20771;-67
2021/10/28 00:22:57;;;;;;;66.70;35.80;;;6.20;93.60;;;;;;5019667;28;20056;-67
2021/10/28 00:25:23;;;;;;;60.88;32.90;;;6.00;93.10;;;;;;5049127;28;20028;-67
2021/10/28 00:27:52;;;;;;;56.58;31.52;;;5.90;92.70;;;;;;5038575;28;20114;-67
2021/10/28 00:30:19;;;;;;;82.35;41.45;;;5.80;92.70;;;;;;5043807;28;20021;-67
2021/10/28 00:32:45;;;;;;;93.97;45.03;;;5.70;93.10;;;;;;5037968;28;20018;-67
2021/10/28 00:35:10;;;;;;;96.78;47.88;;;5.70;93.20;;;;;;5049007;28;20021;-67
2021/10/28 00:37:37;;;;;;;109.32;48.22;;;5.80;93.50;;;;;;5036622;28;20078;-68
2021/10/28 00:40:08;;;;;;;108.75;49.90;;;6.00;93.90;;;;;;5043314;28;20506;-67
2021/10/28 00:42:35;;;;;;;;;;;5.90;93.50;;;;;;5043268;28;20040;-67
2021/10/28 00:45:00;;;;;;;62.90;32.55;;;5.90;93.70;;;;;;5049917;28;20012;-67
2021/10/28 00:47:29;;;;;;;48.47;27.33;;;5.80;93.10;;;;;;5034041;28;20112;-67
2021/10/28 00:49:55;;;;;;;46.50;26.00;;;5.70;93.00;;;;;;5045075;28;20017;-67
2021/10/28 00:52:20;;;;;;;75.38;40.38;;;5.60;92.80;;;;;;5041717;28;20435;-68
2021/10/28 00:54:46;;;;;;;63.15;33.30;;;5.60;93.00;;;;;;5037800;28;20498;-67
2021/10/28 00:57:13;;;;;;;47.70;26.25;;;5.60;93.00;;;;;;5048361;28;20031;-67
2021/10/28 00:59:38;;;;;;;34.50;21.15;;;5.60;92.80;;;;;;5036468;28;20021;-67
2021/10/28 01:02:04;;;;;;;34.58;19.88;;;5.50;92.60;;;;;;5041740;28;20025;-67
2021/10/28 01:04:31;;;;;;;33.08;19.27;;;5.40;92.30;;;;;;5042205;28;20032;-67
2021/10/28 01:06:57;;;;;;;33.90;19.00;;;5.30;92.10;;;;;;5036074;28;20056;-67
2021/10/28 01:09:23;;;;;;;33.33;20.15;;;5.20;92.10;;;;;;5048102;28;20017;-67
2021/10/28 01:11:51;;;;;;;29.88;19.60;;;5.10;92.10;;;;;;5037740;28;20021;-67
2021/10/28 01:14:17;;;;;;;38.90;23.00;;;5.00;92.20;;;;;;5023270;28;20451;-67
2021/10/28 01:16:43;;;;;;;37.40;22.08;;;5.00;92.40;;;;;;5045289;28;20033;-67
2021/10/28 01:19:09;;;;;;;38.95;21.52;;;5.00;92.80;;;;;;5035049;28;20125;-67
2021/10/28 01:21:34;;;;;;;42.45;23.50;;;4.90;92.50;;;;;;5047485;28;20101;-67
2021/10/28 01:24:00;;;;;;;31.23;19.67;;;4.90;92.60;;;;;;5038488;28;20079;-67
2021/10/28 01:26:26;;;;;;;40.90;22.52;;;4.80;92.60;;;;;;5039886;28;20108;-67
2021/10/28 01:28:53;;;;;;;44.85;24.35;;;4.80;92.60;;;;;;5046209;28;20075;-67
2021/10/28 01:31:22;;;;;;;38.08;22.08;;;4.90;93.00;;;;;;5035023;28;20021;-67
2021/10/28 01:33:48;;;;;;;35.65;21.33;;;4.90;92.90;;;;;;5045459;28;20395;-67
2021/10/28 01:36:17;;;;;;;36.17;22.10;;;4.80;92.70;;;;;;5041043;28;20028;-67
2021/10/28 01:38:42;;;;;;;38.05;22.75;;;4.70;92.80;;;;;;5036636;28;20033;-67
2021/10/28 01:41:08;;;;;;;36.40;21.23;;;4.70;93.00;;;;;;5047922;28;20021;-67
2021/10/28 01:43:34;;;;;;;36.95;20.45;;;4.70;92.70;;;;;;5034632;28;20108;-67
2021/10/28 01:46:00;;;;;;;33.95;20.25;;;4.60;92.50;;;;;;5043698;28;20017;-67
2021/10/28 01:48:26;;;;;;;36.35;20.38;;;4.60;92.50;;;;;;5042473;28;20020;-67
2021/10/28 01:50:53;;;;;;;33.53;19.98;;;4.60;92.60;;;;;;5036393;28;20044;-67
2021/10/28 01:53:19;;;;;;;34.92;20.17;;;4.50;92.50;;;;;;5046862;28;20021;-67
2021/10/28 01:55:46;;;;;;;35.72;20.55;;;4.50;92.60;;;;;;5036925;28;20093;-67
2021/10/28 01:58:12;;;;;;;34.70;20.90;;;4.50;92.50;;;;;;5042070;28;20507;-67
2021/10/28 02:00:39;;;;;;;37.70;20.30;;;4.40;92.60;;;;;;5042365;28;20037;-68
2021/10/28 02:03:05;;;;;;;27.15;18.70;;;4.40;92.50;;;;;;5033902;28;20044;-68
2021/10/28 02:05:31;;;;;;;37.67;19.30;;;4.40;92.50;;;;;;5047465;28;20021;-68
2021/10/28 02:07:57;;;;;;;32.60;18.83;;;4.40;92.30;;;;;;5036919;28;20029;-68
2021/10/28 02:10:22;;;;;;;31.80;18.63;;;4.30;92.30;;;;;;5038927;28;20056;-68
2021/10/28 02:12:49;;;;;;;34.70;19.60;;;4.30;92.30;;;;;;5044829;28;20022;-68
2021/10/28 02:15:18;;;;;;;33.05;20.00;;;4.30;92.40;;;;;;5033243;28;20087;-68
2021/10/28 02:17:43;;;;;;;34.80;21.00;;;4.30;92.30;;;;;;5045646;28;20499;-68
2021/10/28 02:20:11;;;;;;;37.80;21.63;;;4.30;92.20;;;;;;5040068;28;20040;-68
2021/10/28 02:22:37;;;;;;;31.40;19.45;;;4.20;92.20;;;;;;5037477;28;20416;-68
2021/10/28 02:25:05;;;;;;;40.15;22.23;;;4.20;92.30;;;;;;5047432;28;20021;-67
2021/10/28 02:27:32;;;;;;;37.15;20.90;;;4.20;92.30;;;;;;5018950;28;20372;-68
2021/10/28 02:29:58;;;;;;;31.70;19.65;;;4.20;92.30;;;;;;5047293;28;20064;-67
2021/10/28 02:32:24;;;;;;;40.70;23.35;;;4.20;92.30;;;;;;5044862;28;20056;-68
2021/10/28 02:34:50;;;;;;;38.25;22.05;;;4.20;92.30;;;;;;5040061;28;20403;-68
2021/10/28 02:37:16;;;;;;;35.00;20.60;;;4.10;92.30;;;;;;5051235;28;20402;-68
2021/10/28 02:39:41;;;;;;;38.83;20.08;;;4.10;92.40;;;;;;5038256;28;20021;-67
2021/10/28 02:42:07;;;;;;;37.25;21.27;;;4.10;92.40;;;;;;5045721;28;20025;-68
2021/10/28 02:44:33;;;;;;;35.22;20.38;;;4.10;92.70;;;;;;5045521;28;20544;-68
2021/10/28 02:46:59;;;;;;;34.20;19.67;;;4.10;92.70;;;;;;5038429;28;20133;-68
2021/10/28 02:49:25;;;;;;;32.97;19.40;;;4.00;92.40;;;;;;5051027;28;20112;-68
2021/10/28 02:51:51;;;;;;;35.65;19.75;;;4.00;92.50;;;;;;5040852;28;20024;-68
2021/10/28 02:54:19;;;;;;;36.17;19.63;;;4.00;92.70;;;;;;5043656;28;20026;-68
2021/10/28 02:56:45;;;;;;;37.35;20.85;;;4.00;92.60;;;;;;5047834;28;20513;-68
2021/10/28 02:59:11;;;;;;;33.83;18.70;;;4.00;92.60;;;;;;5037602;28;20033;-68
2021/10/28 03:01:45;;;;;;;33.33;19.50;;;4.00;92.70;;;;;;5048208;28;20033;-68
2021/10/28 03:04:12;;;;;;;39.60;21.35;;;4.00;92.50;;;;;;5042608;28;20521;-68
2021/10/28 03:06:39;;;;;;;38.22;20.85;;;4.00;92.40;;;;;;5039623;28;20040;-68
2021/10/28 03:09:06;;;;;;;34.90;20.15;;;4.00;92.40;;;;;;5050663;28;20013;-67
2021/10/28 03:11:32;;;;;;;37.65;21.23;;;4.00;92.50;;;;;;5037888;28;20533;-67
2021/10/28 03:13:58;;;;;;;36.15;19.45;;;4.00;92.60;;;;;;5045611;28;20049;-68
2021/10/28 03:16:33;;;;;;;;;;;;;;;;;;;;;
2021/10/28 03:27:18;;;;;;;36.92;21.33;;;3.90;93.10;;;;;;5045030;22;20449;-66
2021/10/28 03:29:44;;;;;;;44.78;22.73;;;3.90;92.90;;;;;;5066852;28;20014;-66
2021/10/28 03:32:09;;;;;;;39.85;23.05;;;3.90;93.00;;;;;;5061722;28;20236;-67
2021/10/28 03:34:36;;;;;;;41.42;22.40;;;3.90;92.90;;;;;;5060874;28;20025;-67
2021/10/28 03:37:07;;;;;;;42.20;22.35;;;3.90;93.00;;;;;;5069668;28;20021;-67
2021/10/28 03:52:58;;;;;;;92.68;37.95;;;4.00;93.60;;;;;;5061872;28;20100;-66
2021/10/28 04:29:16;;;;;;;137.32;52.50;;;5.00;94.90;;;;;;5069034;28;20031;-67
2021/10/28 04:31:42;;;;;;;144.85;51.40;;;5.10;94.90;;;;;;5057440;28;20524;-67
2021/10/28 04:34:10;;;;;;;128.02;50.85;;;5.10;94.80;;;;;;5062872;28;20104;-67
2021/10/28 04:36:36;;;;;;;136.35;51.38;;;5.20;94.80;;;;;;5064849;28;20024;-67
2021/10/28 04:39:06;;;;;;;129.75;52.58;;;5.40;95.00;;;;;;5054385;28;20021;-66
2021/10/28 04:41:33;;;;;;;157.27;54.97;;;5.30;94.70;;;;;;5040024;28;20066;-67
2021/10/28 04:43:58;;;;;;;154.52;56.05;;;5.30;94.90;;;;;;5069518;28;20029;-66
2021/10/28 04:46:24;;;;;;;143.40;53.80;;;5.40;94.90;;;;;;5061034;28;20399;-68
2021/10/28 04:48:49;;;;;;;141.30;54.53;;;5.40;94.80;;;;;;5065004;28;20042;-68
2021/10/28 04:51:15;;;;;;;145.20;54.22;;;5.50;94.80;;;;;;5054841;28;20094;-67
2021/10/28 04:53:41;;;;;;;141.70;52.88;;;5.50;94.90;;;;;;5066250;28;20467;-67
2021/10/28 04:56:06;;;;;;;140.73;53.80;;;5.50;94.70;;;;;;5060430;28;20138;-67
2021/10/28 04:58:32;;;;;;;134.07;51.38;;;5.40;94.60;;;;;;5058316;28;20029;-67
2021/10/28 05:00:57;;;;;;;141.10;51.90;;;5.40;94.70;;;;;;5067246;28;20068;-67
2021/10/28 05:03:23;;;;;;;137.32;50.60;;;5.30;94.60;;;;;;5054381;28;20025;-67
2021/10/28 05:05:49;;;;;;;136.93;51.40;;;5.20;94.60;;;;;;5063931;28;20029;-67
2021/10/28 05:08:14;;;;;;;134.88;49.50;;;5.20;94.70;;;;;;5062135;28;20024;-67
2021/10/28 05:10:44;;;;;;;138.98;49.50;;;5.20;94.80;;;;;;5058596;28;20028;-67
2021/10/28 05:13:15;;;;;;;127.45;47.97;;;5.20;94.80;;;;;;5066338;28;20021;-66
2021/10/28 05:15:45;;;;;;;130.10;48.85;;;5.10;94.70;;;;;;5057360;28;20028;-67
2021/10/28 05:18:12;;;;;;;154.15;54.30;;;5.10;94.80;;;;;;5060887;28;20025;-66
2021/10/28 05:20:38;;;;;;;152.95;53.53;;;5.20;95.00;;;;;;5063961;28;20025;-66
2021/10/28 05:23:03;;;;;;;156.43;52.58;;;5.20;95.00;;;;;;5054190;28;20170;-66
2021/10/28 05:25:29;;;;;;;150.50;51.58;;;5.20;95.00;;;;;;5067988;28;20410;-67
2021/10/28 05:27:55;;;;;;;154.43;52.88;;;5.20;95.00;;;;;;5058156;28;20028;-67
2021/10/28 05:30:20;;;;;;;142.82;53.13;;;5.10;94.90;;;;;;5059443;28;20390;-67
2021/10/28 05:32:46;;;;;;;135.00;52.17;;;5.20;95.10;;;;;;5064230;28;20020;-67
2021/10/28 05:35:12;;;;;;;128.75;50.03;;;5.30;95.10;;;;;;5053299;28;20024;-70
2021/10/28 05:37:37;;;;;;;158.40;52.53;;;5.30;95.10;;;;;;5066724;28;20402;-72
2021/10/28 05:40:03;;;;;;;143.13;55.80;;;5.30;95.10;;;;;;5057847;28;20032;-73
2021/10/28 05:42:30;;;;;;;167.25;60.50;;;5.30;95.10;;;;;;5057275;28;20110;-72
2021/10/28 05:44:56;;;;;;;161.65;56.80;;;5.30;95.10;;;;;;5066462;28;20157;-72
2021/10/28 05:47:22;;;;;;;164.10;58.15;;;5.30;95.10;;;;;;5053159;28;20079;-72
2021/10/28 05:49:47;;;;;;;163.45;56.03;;;5.40;95.20;;;;;;5065250;28;20437;-72
2021/10/28 05:52:13;;;;;;;166.68;59.67;;;5.40;95.20;;;;;;5060107;28;20470;-72
2021/10/28 05:54:38;;;;;;;196.52;66.40;;;5.40;95.10;;;;;;5056668;28;20052;-72
2021/10/28 05:57:04;;;;;;;165.63;57.20;;;5.40;95.10;;;;;;5067270;28;20036;-72
2021/10/28 05:59:30;;;;;;;166.13;61.67;;;5.50;95.20;;;;;;5053282;28;20017;-71
2021/10/28 06:01:55;;;;;;;187.63;64.53;;;5.50;95.20;;;;;;5064414;28;20059;-70
2021/10/28 06:04:21;;;;;;;168.48;57.13;;;5.50;95.20;;;;;;5065346;28;20028;-70
2021/10/28 06:06:46;;;;;;;167.32;57.75;;;5.50;95.10;;;;;;5059772;28;20663;-71
2021/10/28 06:09:12;;;;;;;155.13;54.08;;;5.50;95.10;;;;;;5071451;28;20021;-71
2021/10/28 06:11:38;;;;;;;160.73;56.85;;;5.50;95.10;;;;;;5059983;28;20678;-70
2021/10/28 06:14:03;;;;;;;158.50;55.00;;;5.60;95.10;;;;;;5065774;28;20017;-70
2021/10/28 06:16:29;;;;;;;172.05;59.60;;;5.70;95.20;;;;;;5066486;28;20027;-70
2021/10/28 06:18:55;;;;;;;152.35;54.42;;;5.90;95.20;;;;;;5058069;28;20021;-71
2021/10/28 06:21:25;;;;;;;151.32;55.20;;;6.10;95.10;;;;;;5071265;28;20035;-70
2021/10/28 06:23:51;;;;;;;122.38;49.15;;;6.20;94.70;;;;;;5059294;28;20393;-66
2021/10/28 06:26:18;;;;;;;109.35;44.60;;;6.30;94.20;;;;;;5063128;28;20021;-67
2021/10/28 06:28:45;;;;;;;108.18;44.28;;;6.50;93.70;;;;;;5068127;28;20032;-66
2021/10/28 06:31:13;;;;;;;88.80;41.22;;;6.70;93.70;;;;;;5056941;28;20116;-66
2021/10/28 06:33:46;;;;;;;78.47;39.47;;;7.00;92.90;;;;;;5069003;28;20155;-66
2021/10/28 06:36:12;;;;;;;73.75;36.30;;;6.90;92.10;;;;;;5063996;28;20036;-66
2021/10/28 06:38:38;;;;;;;77.68;38.13;;;6.80;91.90;;;;;;5061095;28;20030;-67
2021/10/28 06:41:04;;;;;;;75.88;37.97;;;6.80;92.30;;;;;;5053210;28;20025;-71
2021/10/28 06:43:31;;;;;;;75.78;39.42;;;6.80;92.00;;;;;;5043106;28;20038;-71
2021/10/28 06:45:57;;;;;;;62.00;35.40;;;6.80;92.20;;;;;;5067148;28;20017;-72
2021/10/28 06:48:23;;;;;;;70.57;38.08;;;6.80;92.10;;;;;;5064831;28;20020;-72
2021/10/28 06:50:59;;;;;;;64.35;36.53;;;6.70;92.10;;;;;;5054784;28;20025;-71
2021/10/28 06:53:29;;;;;;;70.88;37.00;;;6.70;92.20;;;;;;5069886;28;20032;-71
2021/10/28 07:04:06;;;;;;;62.30;34.13;;;6.70;92.10;;;;;;5062025;28;20547;-71
2021/10/28 07:06:36;;;;;;;60.83;33.80;;;6.80;92.30;;;;;;5062982;28;20029;-68
2021/10/28 07:09:17;;;;;;;58.13;32.40;;;6.90;92.40;;;;;;5059767;28;20021;-67
2021/10/28 07:11:44;;;;;;;59.35;34.70;;;6.90;92.10;;;;;;5044711;28;20077;-69
2021/10/28 07:14:11;;;;;;;71.35;40.75;;;7.00;91.70;;;;;;5063841;28;20159;-69
2021/10/28 07:30:40;;;;;;;49.35;29.13;;;7.40;90.80;;;;;;5061384;28;20020;-71
2021/10/28 07:55:35;;;;;;;234.68;119.32;;;7.80;90.40;;;;;;5071058;28;20618;-74
2021/10/28 08:16:26;;;;;;;97.65;50.53;;;8.40;89.80;;;;;;5054007;28;20420;-72
2021/10/28 08:19:19;;;;;;;;;;;8.50;90.10;;;;;;5054022;28;20371;-71
2021/10/28 08:21:53;;;;;;;91.65;48.03;;;8.50;89.50;;;;;;5053753;28;19904;-73
2021/10/28 08:29:52;;;;;;;50.92;31.10;;;8.90;89.70;;;;;;5053461;28;20748;-72
2021/10/28 08:32:18;;;;;;;55.88;31.02;;;8.80;88.70;;;;;;5053117;28;20110;-71
2021/10/28 08:34:45;;;;;;;73.82;37.30;;;9.00;88.40;;;;;;5049441;28;20428;-72
2021/10/28 08:37:18;;;;;;;43.65;28.52;;;9.00;88.90;;;;;;5051845;28;20044;-70
2021/10/28 08:39:49;;;;;;;47.30;29.85;;;9.00;88.40;;;;;;5052917;28;20025;-73
2021/10/28 08:42:18;;;;;;;95.40;51.33;;;9.00;88.50;;;;;;5051002;28;20025;-71
2021/10/28 08:44:49;;;;;;;97.25;48.38;;;9.10;88.70;;;;;;5049719;28;20041;-70
2021/10/28 08:47:16;;;;;;;51.42;31.15;;;9.20;88.80;;;;;;5054005;28;20017;-70
2021/10/28 08:49:47;;;;;;;56.00;33.45;;;9.30;88.40;;;;;;5056051;28;20386;-70
2021/10/28 09:26:25;;;;;;;33.33;20.55;;;10.90;82.60;;;;;;5061647;28;20027;-73
2021/10/28 09:29:24;;;;;;;33.35;21.35;;;11.10;81.70;;;;;;5056127;22;20084;-76
2021/10/28 09:31:59;;;;;;;28.23;19.15;;;11.20;81.00;;;;;;5023143;28;20076;-76
2021/10/28 09:45:58;;;;;;;27.58;18.23;;;11.80;77.60;;;;;;5047003;28;20036;-75
2021/10/28 09:49:48;;;;;;;30.20;18.77;;;11.70;76.90;;;;;;4966885;28;20031;-80
2021/10/28 09:51:19;;;;;;;24.90;18.10;;;11.70;77.40;;;;;;5034990;28;20025;-68
2021/10/28 09:59:40;;;;;;;25.38;17.13;;;11.90;76.00;;;;;;5034800;28;19915;-68
2021/10/28 10:02:17;;;;;;;25.17;17.95;;;11.90;76.60;;;;;;5035260;28;20036;-74
2021/10/28 10:04:45;;;;;;;28.58;17.55;;;12.00;75.90;;;;;;5043774;28;20025;-74
2021/10/28 10:07:12;;;;;;;29.98;18.23;;;12.00;76.40;;;;;;5032297;28;20025;-69
2021/10/28 10:09:39;;;;;;;27.42;17.65;;;12.00;75.40;;;;;;5046080;28;20031;-76
2021/10/28 10:12:06;;;;;;;26.75;18.35;;;12.00;75.40;;;;;;5038989;28;20101;-74
2021/10/28 10:14:35;;;;;;;26.50;16.55;;;12.00;75.40;;;;;;5039041;28;20505;-75
2021/10/28 10:17:02;;;;;;;29.08;18.30;;;12.00;75.00;;;;;;5041427;28;20126;-74
2021/10/28 10:19:30;;;;;;;28.80;18.17;;;12.10;74.60;;;;;;5035094;28;20021;-72
2021/10/28 10:21:57;;;;;;;27.60;17.65;;;12.10;74.90;;;;;;5042465;28;20113;-73
2021/10/28 10:24:43;;;;;;;21.45;16.65;;;12.10;75.00;;;;;;5041523;28;20505;-76
2021/10/28 11:22:09;;;;;;;23.73;14.18;;;13.70;63.90;;;;;;5037555;28;20505;-74
2021/10/28 11:27:54;;;;;;;15.70;11.23;;;13.70;64.80;;;;;;5050486;28;20125;-75
2021/10/28 11:31:09;;;;;;;27.15;15.77;;;13.80;64.00;;;;;;5044624;28;20118;-73
2021/10/28 12:51:01;;;;;;;;;;;;;;;;;;;;;
2021/10/28 12:53:34;;;;;;;17.20;10.35;;;14.40;57.90;;;;;;5038344;28;20026;-78
2021/10/28 12:56:24;;;;;;;35.22;20.10;;;14.40;55.50;;;;;;5042418;28;20031;-69
2021/10/28 13:56:50;;;;;;;28.33;17.75;;;13.10;63.40;;;;;;5035818;28;20032;-79
2021/10/28 14:16:22;;;;;;;26.13;15.57;;;13.10;60.30;;;;;;5020025;28;20163;-69
2021/10/28 14:21:23;;;;;;;20.73;13.60;;;13.00;61.30;;;;;;5046210;28;20120;-68
2021/10/28 14:24:11;;;;;;;23.95;14.18;;;13.00;61.10;;;;;;5037115;28;20100;-68
2021/10/28 14:27:28;;;;;;;27.67;16.25;;;12.90;61.40;;;;;;5040719;28;20049;-73
2021/10/28 14:38:09;;;;;;;32.53;20.92;;;12.80;63.20;;;;;;5024070;28;20103;-71
2021/10/28 15:37:27;;;;;;;51.15;30.27;;;11.00;73.70;;;;;;5072750;28;20119;-68
2021/10/28 15:56:08;;;;;;;44.58;28.45;;;10.00;77.40;;;;;;5035993;28;20014;-69
2021/10/28 16:22:19;;;;;;;50.72;31.63;;;9.10;82.10;;;;;;5041364;28;20047;-69
2021/10/28 16:24:45;;;;;;;54.92;34.95;;;9.00;82.50;;;;;;5046458;28;20100;-68
2021/10/28 16:27:11;;;;;;;49.03;30.88;;;9.00;82.80;;;;;;5034752;28;20442;-69
2021/10/28 16:29:36;;;;;;;57.33;33.83;;;9.00;83.20;;;;;;5046987;28;20108;-69
2021/10/28 16:32:03;;;;;;;50.60;30.33;;;8.90;83.40;;;;;;5039714;28;20463;-69
2021/10/28 16:34:28;;;;;;;47.10;29.23;;;8.90;83.40;;;;;;5041121;28;20216;-70
2021/10/28 16:36:55;;;;;;;56.08;33.47;;;8.80;83.30;;;;;;5047794;28;20129;-70
2021/10/28 16:39:21;;;;;;;48.40;31.67;;;8.80;83.60;;;;;;5035335;28;20029;-70
2021/10/28 16:41:51;;;;;;;50.45;31.27;;;8.80;84.00;;;;;;5046382;28;20025;-68
2021/10/28 16:44:17;;;;;;;50.78;32.95;;;8.70;83.90;;;;;;5033687;28;20036;-69
2021/10/28 16:46:45;;;;;;;50.25;31.02;;;8.70;84.20;;;;;;5045416;28;20025;-68
2021/10/28 16:49:11;;;;;;;55.75;32.13;;;8.60;84.50;;;;;;5035834;28;20033;-68
2021/10/28 16:51:37;;;;;;;51.53;33.40;;;8.50;84.50;;;;;;5046691;28;20109;-68
2021/10/28 16:54:03;;;;;;;54.17;32.33;;;8.40;84.70;;;;;;5038424;28;20179;-68
2021/10/28 16:56:29;;;;;;;51.47;30.23;;;8.30;84.90;;;;;;5051625;28;20033;-70
2021/10/28 16:58:54;;;;;;;46.53;29.70;;;8.30;85.20;;;;;;5035029;28;20029;-69
2021/10/28 17:01:20;;;;;;;50.20;30.63;;;8.30;85.30;;;;;;5048185;28;20052;-69
2021/10/28 17:03:46;;;;;;;57.70;32.78;;;8.30;85.50;;;;;;5036469;28;20028;-70
2021/10/28 17:06:15;;;;;;;60.78;35.28;;;8.20;85.60;;;;;;5041234;28;20071;-68
2021/10/28 17:08:41;;;;;;;52.58;30.38;;;8.20;85.60;;;;;;5045291;28;20104;-69
2021/10/28 17:11:07;;;;;;;53.13;32.63;;;8.20;85.70;;;;;;5035012;28;20494;-69
2021/10/28 17:13:33;;;;;;;54.00;33.92;;;8.40;85.50;;;;;;5046533;28;20105;-69
2021/10/28 17:15:59;;;;;;;51.63;31.40;;;8.60;84.30;;;;;;5039120;28;20132;-69
2021/10/28 17:18:24;;;;;;;50.97;30.73;;;8.80;83.40;;;;;;5040030;28;20052;-69
2021/10/28 17:20:51;;;;;;;65.78;35.65;;;8.90;83.00;;;;;;5045911;28;20510;-69
2021/10/28 17:23:19;;;;;;;56.25;33.58;;;8.90;82.80;;;;;;5033983;28;20167;-69
2021/10/28 17:25:55;;;;;;;45.60;30.23;;;8.80;82.70;;;;;;5045923;28;20022;-68
2021/10/28 17:28:21;;;;;;;64.03;37.47;;;8.90;82.70;;;;;;5040403;28;20051;-68
2021/10/28 17:30:47;;;;;;;53.75;31.02;;;8.90;82.60;;;;;;5037231;28;20570;-68
2021/10/28 17:33:12;;;;;;;54.08;32.25;;;8.70;83.20;;;;;;5047061;28;20017;-69
2021/10/28 17:35:38;;;;;;;53.28;32.70;;;8.70;83.20;;;;;;5036048;28;20029;-68
2021/10/28 17:38:03;;;;;;;68.82;36.92;;;8.70;83.20;;;;;;5042989;28;20034;-70
2021/10/28 17:40:29;;;;;;;53.70;32.63;;;8.60;83.30;;;;;;5043025;28;20476;-70
2021/10/28 17:42:56;;;;;;;54.28;31.90;;;8.50;83.90;;;;;;5035732;28;20025;-69
2021/10/28 17:45:27;;;;;;;55.88;34.50;;;8.50;83.90;;;;;;5034567;28;20025;-69
2021/10/28 17:47:54;;;;;;;50.40;31.88;;;8.50;83.70;;;;;;5042905;28;20230;-69
2021/10/28 17:50:21;;;;;;;53.88;32.85;;;8.50;83.90;;;;;;5041461;28;20518;-69
2021/10/28 17:52:46;;;;;;;57.60;32.30;;;8.60;83.60;;;;;;5034819;28;20056;-69
2021/10/28 17:55:12;;;;;;;54.38;32.40;;;8.50;83.70;;;;;;5047550;28;20057;-69
2021/10/28 17:57:41;;;;;;;51.25;34.03;;;8.50;83.70;;;;;;5035775;28;20056;-69
2021/10/28 18:00:08;;;;;;;60.47;32.83;;;8.60;83.50;;;;;;5044633;28;20026;-69
2021/10/28 18:02:35;;;;;;;51.55;31.40;;;8.70;83.40;;;;;;5046709;28;20029;-69
2021/10/28 18:05:01;;;;;;;52.58;32.63;;;8.80;83.00;;;;;;5038627;28;20049;-69
2021/10/28 18:07:27;;;;;;;54.90;34.47;;;8.90;82.50;;;;;;5051463;28;20509;-69
2021/10/28 18:09:53;;;;;;;53.75;31.70;;;8.90;82.20;;;;;;5042041;28;20028;-69
2021/10/28 18:12:19;;;;;;;47.92;30.92;;;8.90;82.30;;;;;;5043444;28;20025;-69
2021/10/28 18:14:45;;;;;;;53.05;31.92;;;8.80;82.30;;;;;;5049078;28;20021;-69
2021/10/28 18:17:11;;;;;;;58.75;31.67;;;8.90;81.90;;;;;;5036577;28;20537;-69
2021/10/28 18:19:38;;;;;;;56.45;32.33;;;8.80;81.90;;;;;;5049163;28;20032;-69
2021/10/28 18:22:05;;;;;;;52.45;33.53;;;8.80;81.90;;;;;;5042379;28;20082;-69
2021/10/28 18:24:31;;;;;;;57.92;36.50;;;8.70;81.90;;;;;;5041604;28;20021;-69
2021/10/28 18:26:57;;;;;;;52.75;33.60;;;8.60;82.10;;;;;;5050146;28;20029;-69
2021/10/28 18:29:23;;;;;;;53.83;34.30;;;8.50;82.40;;;;;;5037996;28;20034;-69
2021/10/28 18:31:49;;;;;;;54.88;34.20;;;8.50;82.80;;;;;;5048633;28;20029;-69
2021/10/28 18:34:15;;;;;;;57.88;35.42;;;8.40;82.90;;;;;;5043735;28;20029;-69
2021/10/28 18:36:41;;;;;;;60.97;35.10;;;8.30;83.10;;;;;;5040049;28;20091;-69
2021/10/28 18:39:09;;;;;;;51.90;32.45;;;8.30;83.30;;;;;;5051170;28;20029;-69
2021/10/28 18:41:35;;;;;;;61.88;33.30;;;8.20;83.50;;;;;;5037596;28;20108;-69
2021/10/28 18:44:01;;;;;;;59.85;35.00;;;8.30;83.50;;;;;;5051817;28;20025;-69
2021/10/28 18:46:27;;;;;;;56.78;33.38;;;8.30;83.40;;;;;;5043170;28;20037;-69
2021/10/28 18:48:57;;;;;;;52.80;32.72;;;8.30;83.50;;;;;;5049173;28;20033;-69
2021/10/28 18:51:22;;;;;;;54.83;33.67;;;8.30;83.40;;;;;;5037880;28;20454;-70
2021/10/28 18:53:49;;;;;;;56.97;34.05;;;8.40;83.10;;;;;;5047380;28;20025;-69
2021/10/28 18:56:16;;;;;;;51.38;33.15;;;8.60;82.50;;;;;;5043903;28;20021;-69
2021/10/28 18:58:43;;;;;;;55.47;31.63;;;8.60;82.20;;;;;;5040739;28;20042;-69
2021/10/28 19:01:09;;;;;;;52.50;32.03;;;8.60;81.90;;;;;;5050557;28;20112;-69
2021/10/28 19:03:36;;;;;;;56.00;33.90;;;8.60;81.80;;;;;;5036387;28;20028;-69
2021/10/28 19:06:03;;;;;;;55.10;33.45;;;8.60;81.70;;;;;;5046101;28;20501;-70
2021/10/28 19:08:29;;;;;;;57.33;32.05;;;8.60;81.80;;;;;;5045486;28;20033;-70
2021/10/28 19:10:54;;;;;;;51.05;32.70;;;8.50;81.90;;;;;;5038134;28;20034;-70
2021/10/28 19:13:20;;;;;;;53.70;34.22;;;8.50;81.80;;;;;;5049730;28;20021;-69
2021/10/28 19:15:46;;;;;;;55.95;33.95;;;8.50;81.90;;;;;;5039643;28;20078;-70
2021/10/28 19:18:12;;;;;;;52.40;32.88;;;8.50;82.10;;;;;;5042800;28;20033;-70
2021/10/28 19:20:38;;;;;;;57.78;36.00;;;8.40;82.10;;;;;;5046838;28;20364;-69
2021/10/28 19:23:06;;;;;;;60.95;35.50;;;8.30;82.20;;;;;;5036536;28;20036;-70
2021/10/28 19:25:33;;;;;;;63.83;37.30;;;8.30;82.30;;;;;;5037686;28;20029;-69
2021/10/28 19:27:59;;;;;;;61.50;36.22;;;8.30;82.60;;;;;;5044691;28;20041;-70
2021/10/28 19:30:43;;;;;;;56.63;34.20;;;8.20;82.60;;;;;;5045083;28;20351;-68
2021/10/28 19:33:14;;;;;;;55.75;33.65;;;8.10;82.70;;;;;;5036082;28;20026;-69
2021/10/28 19:35:44;;;;;;;60.75;35.63;;;8.10;82.50;;;;;;5048892;28;20021;-68
2021/10/28 19:38:39;;;;;;;67.63;39.97;;;8.20;82.10;;;;;;5042849;28;20382;-68
2021/10/28 19:46:27;;;;;;;73.53;40.17;;;8.30;82.10;;;;;;5041997;28;20033;-69
2021/10/28 19:48:53;;;;;;;65.70;37.83;;;8.20;81.80;;;;;;5047909;28;20025;-68
2021/10/28 19:51:19;;;;;;;67.85;36.83;;;8.20;81.50;;;;;;5035401;28;20037;-68
2021/10/28 19:53:47;;;;;;;70.43;40.28;;;8.20;81.60;;;;;;5046967;28;20101;-68
2021/10/28 19:56:22;;;;;;;64.32;38.22;;;8.10;82.40;;;;;;5042501;28;20025;-68
2021/10/28 19:58:54;;;;;;;73.65;39.05;;;8.00;82.80;;;;;;5039071;28;20025;-68
2021/10/28 20:01:56;;;;;;;77.22;42.22;;;7.90;82.70;;;;;;5049748;28;20032;-69
2021/10/28 20:15:00;;;;;;;69.00;37.58;;;7.70;83.30;;;;;;5038339;28;20032;-69
2021/10/28 20:20:25;;;;;;;73.72;38.45;;;7.60;83.60;;;;;;5042293;28;20124;-69
2021/10/28 20:22:51;;;;;;;67.57;37.23;;;7.60;83.40;;;;;;5036346;28;20075;-69
2021/10/28 20:25:21;;;;;;;70.47;38.40;;;7.60;83.40;;;;;;5049084;28;20436;-69
2021/10/28 20:27:49;;;;;;;65.72;36.20;;;7.50;84.10;;;;;;5038216;28;20044;-69
2021/10/28 20:30:17;;;;;;;69.57;38.55;;;7.50;83.60;;;;;;5042893;28;20030;-68
2021/10/28 20:32:42;;;;;;;66.13;39.30;;;7.50;84.50;;;;;;5045283;28;20020;-68
2021/10/28 20:35:28;;;;;;;65.28;36.55;;;7.40;84.80;;;;;;5035655;28;20029;-69
2021/10/28 20:37:55;;;;;;;76.05;38.63;;;7.40;84.60;;;;;;5045590;28;20022;-69
2021/10/28 20:40:21;;;;;;;65.93;37.85;;;7.20;84.60;;;;;;5043020;28;20045;-69
2021/10/28 20:42:47;;;;;;;66.22;37.35;;;7.20;84.90;;;;;;5037356;28;20104;-69
2021/10/28 20:45:18;;;;;;;56.53;35.05;;;7.20;84.60;;;;;;5035402;28;20059;-69
2021/10/28 20:47:44;;;;;;;63.50;36.67;;;7.10;84.70;;;;;;5046902;28;20037;-69
2021/10/28 20:50:12;;;;;;;66.97;35.33;;;7.10;84.40;;;;;;5041637;28;20096;-68
2021/10/28 20:52:39;;;;;;;65.97;36.70;;;7.00;84.40;;;;;;5039672;28;20443;-69
2021/10/28 20:55:06;;;;;;;65.75;38.55;;;7.00;84.60;;;;;;5051543;28;20036;-69
2021/10/28 20:57:33;;;;;;;69.85;38.65;;;6.90;85.10;;;;;;5036041;28;20029;-69
2021/10/28 20:59:58;;;;;;;75.90;39.10;;;6.80;85.50;;;;;;5052117;28;20032;-69
2021/10/28 21:02:24;;;;;;;59.28;35.83;;;6.80;85.70;;;;;;5040275;28;20025;-68
2021/10/28 21:04:50;;;;;;;65.43;35.88;;;6.70;85.70;;;;;;5046850;28;20021;-69
2021/10/28 21:07:16;;;;;;;66.68;37.85;;;6.70;85.60;;;;;;5037562;28;20051;-69
2021/10/28 21:09:41;;;;;;;70.25;38.53;;;6.70;85.80;;;;;;5044028;28;20029;-69
2021/10/28 21:12:08;;;;;;;70.18;37.15;;;6.70;85.40;;;;;;5035967;28;20083;-68
2021/10/28 21:14:34;;;;;;;67.07;36.20;;;6.70;85.90;;;;;;5036759;28;20501;-69
2021/10/28 21:16:59;;;;;;;59.92;34.85;;;6.80;85.30;;;;;;5046048;28;20032;-69
2021/10/28 21:19:25;;;;;;;54.15;34.53;;;6.80;85.00;;;;;;5036251;28;20014;-69
2021/10/28 21:21:53;;;;;;;55.95;32.75;;;6.80;84.70;;;;;;5035713;28;20540;-69
2021/10/28 21:24:20;;;;;;;55.60;33.08;;;6.80;84.40;;;;;;5048518;28;20530;-69
2021/10/28 21:26:46;;;;;;;57.63;32.78;;;6.80;84.60;;;;;;5035671;28;20021;-69
2021/10/28 21:29:12;;;;;;;58.55;35.15;;;6.80;84.40;;;;;;5079917;22;20523;-68